createdAt,value
2018-09-18T00:02:23.141Z,97821.47
2018-09-18T00:04:51.599Z,97824.29
2018-09-18T00:07:20.177Z,97822.47
2018-09-18T00:09:49.336Z,97830.76
2018-09-18T00:12:18.463Z,97831.71
2018-09-18T00:14:46.927Z,97833.07
2018-09-18T00:17:15.401Z,97838.05
2018-09-18T00:19:44.909Z,97836.64
2018-09-18T00:22:13.951Z,97827.88
2018-09-18T00:24:42.497Z,97830.55
2018-09-18T00:27:11.784Z,97827.45
2018-09-18T00:29:40.235Z,97819.53
2018-09-18T00:32:08.737Z,97822.67
2018-09-18T00:34:37.911Z,97814.28
2018-09-18T00:37:07.120Z,97816.11
2018-09-18T00:39:35.577Z,97813.16
2018-09-18T00:42:04.463Z,97809.06
2018-09-18T00:44:33.972Z,97814.50
2018-09-18T00:47:02.474Z,97809.95
2018-09-18T00:49:31.418Z,97814.03
2018-09-18T00:52:00.568Z,97814.92
2018-09-18T00:54:29.034Z,97810.80
2018-09-18T00:56:58.207Z,97806.02
2018-09-18T00:59:27.272Z,97808.73
2018-09-18T01:01:56.462Z,97805.30
2018-09-18T01:04:25.098Z,97807.78
2018-09-18T01:06:53.676Z,97807.31
2018-09-18T01:09:22.133Z,97807.96
2018-09-18T01:11:50.731Z,97811.45
2018-09-18T01:14:19.829Z,97804.93
2018-09-18T01:16:48.387Z,97803.75
2018-09-18T01:19:17.223Z,97809.51
2018-09-18T01:21:45.713Z,97806.44
2018-09-18T01:24:14.831Z,97801.66
2018-09-18T01:26:44.018Z,97806.85
2018-09-18T01:29:13.501Z,97804.31
2018-09-18T01:31:42.753Z,97812.05
2018-09-18T01:34:11.797Z,97805.05
2018-09-18T01:36:41.165Z,97813.05
2018-09-18T01:39:10.239Z,97807.85
2018-09-18T01:41:39.047Z,97810.09
2018-09-18T01:44:08.750Z,97809.86
2018-09-18T01:46:37.551Z,97806.02
2018-09-18T01:49:06.352Z,97813.70
2018-09-18T01:51:35.625Z,97809.44
2018-09-18T01:54:04.655Z,97813.12
2018-09-18T01:56:33.135Z,97812.49
2018-09-18T01:59:01.729Z,97808.27
2018-09-18T02:01:30.374Z,97804.95
2018-09-18T02:03:58.752Z,97807.43
2018-09-18T02:06:28.214Z,97801.13
2018-09-18T02:08:57.267Z,97801.22
2018-09-18T02:11:25.683Z,97803.13
2018-09-18T02:13:54.450Z,97801.86
2018-09-18T02:16:23.160Z,97798.22
2018-09-18T02:18:51.664Z,97799.90
2018-09-18T02:21:20.601Z,97802.94
2018-09-18T02:23:49.084Z,97804.05
2018-09-18T02:26:19.295Z,97806.61
2018-09-18T02:28:47.747Z,97793.20
2018-09-18T02:31:16.389Z,97793.56
2018-09-18T02:33:44.981Z,97793.08
2018-09-18T02:36:17.803Z,97792.68
2018-09-18T02:38:46.992Z,97796.27
2018-09-18T02:41:15.529Z,97787.12
2018-09-18T02:43:43.999Z,97793.72
2018-09-18T02:46:13.081Z,97802.28
2018-09-18T02:48:41.857Z,97792.08
2018-09-18T02:51:10.746Z,97794.62
2018-09-18T02:53:40.260Z,97800.61
2018-09-18T02:56:09.098Z,97795.38
2018-09-18T02:58:38.447Z,97789.34
2018-09-18T03:01:07.652Z,97791.58
2018-09-18T03:03:36.937Z,97794.29
2018-09-18T03:06:06.164Z,97791.73
2018-09-18T03:08:35.500Z,97794.45
2018-09-18T03:11:04.016Z,97787.43
2018-09-18T03:13:32.556Z,97799.87
2018-09-18T03:16:02.230Z,97791.49
2018-09-18T03:18:30.834Z,97797.79
2018-09-18T03:20:59.720Z,97792.79
2018-09-18T03:23:28.829Z,97779.39
2018-09-18T03:25:57.243Z,97794.69
2018-09-18T03:28:25.792Z,97798.20
2018-09-18T03:30:54.947Z,97791.50
2018-09-18T03:33:23.656Z,97792.61
2018-09-18T03:35:52.185Z,97789.45
2018-09-18T03:38:20.826Z,97798.45
2018-09-18T03:40:49.847Z,97805.30
2018-09-18T03:43:18.928Z,97801.48
2018-09-18T03:45:48.242Z,97807.35
2018-09-18T03:48:16.872Z,97808.16
2018-09-18T03:50:45.489Z,97801.94
2018-09-18T03:53:13.998Z,97794.12
2018-09-18T03:55:42.631Z,97794.61
2018-09-18T03:58:11.805Z,97794.44
2018-09-18T04:00:40.916Z,97796.34
2018-09-18T04:03:10.176Z,97796.84
2018-09-18T04:05:39.199Z,97794.59
2018-09-18T04:08:11.642Z,97797.78
2018-09-18T04:10:40.792Z,97793.47
2018-09-18T04:13:09.844Z,97788.05
2018-09-18T04:15:38.672Z,97797.22
2018-09-18T04:18:07.463Z,97792.12
2018-09-18T04:20:35.938Z,97790.84
2018-09-18T04:23:04.979Z,97795.28
2018-09-18T04:25:34.194Z,97788.06
2018-09-18T04:28:03.436Z,97791.39
2018-09-18T04:30:32.399Z,97792.33
2018-09-18T04:33:02.045Z,97792.78
2018-09-18T04:35:31.310Z,97790.00
2018-09-18T04:38:00.635Z,97791.19
2018-09-18T04:40:29.085Z,97790.63
2018-09-18T04:42:57.613Z,97799.48
2018-09-18T04:45:26.244Z,97798.92
2018-09-18T04:47:55.464Z,97798.13
2018-09-18T04:50:24.662Z,97798.50
2018-09-18T04:52:53.121Z,97802.94
2018-09-18T04:55:22.276Z,97799.05
2018-09-18T04:57:51.522Z,97805.05
2018-09-18T05:00:19.988Z,97802.97
2018-09-18T05:02:49.005Z,97792.34
2018-09-18T05:05:17.566Z,97810.35
2018-09-18T05:07:46.616Z,97819.58
2018-09-18T05:10:16.061Z,97817.67
2018-09-18T05:12:45.274Z,97820.14
2018-09-18T05:15:14.696Z,97818.53
2018-09-18T05:17:43.406Z,97819.64
2018-09-18T05:20:11.851Z,97820.61
2018-09-18T05:22:41.115Z,97821.55
2018-09-18T05:25:10.306Z,97831.58
2018-09-18T05:27:38.802Z,97824.81
2018-09-18T05:30:07.296Z,97828.44
2018-09-18T05:32:35.783Z,97824.50
2018-09-18T05:35:04.326Z,97822.16
2018-09-18T05:37:32.812Z,97820.70
2018-09-18T05:40:02.090Z,97826.02
2018-09-18T05:42:31.187Z,97826.93
2018-09-18T05:44:59.784Z,97831.42
2018-09-18T05:47:28.563Z,97842.12
2018-09-18T05:49:57.019Z,97839.48
2018-09-18T05:52:26.174Z,97833.53
2018-09-18T05:54:54.666Z,97833.81
2018-09-18T05:57:23.723Z,97835.44
2018-09-18T05:59:52.289Z,97828.20
2018-09-18T06:02:21.086Z,97832.08
2018-09-18T06:04:50.107Z,97831.42
2018-09-18T06:07:18.713Z,97839.75
2018-09-18T06:09:47.357Z,97837.05
2018-09-18T06:12:16.531Z,97846.28
2018-09-18T06:14:45.715Z,97843.63
2018-09-18T06:17:14.755Z,97846.30
2018-09-18T06:19:44.135Z,97846.36
2018-09-18T06:22:13.289Z,97844.53
2018-09-18T06:24:42.236Z,97846.21
2018-09-18T06:27:11.379Z,97849.62
2018-09-18T06:29:40.000Z,97855.33
2018-09-18T06:32:08.441Z,97847.75
2018-09-18T06:34:37.769Z,97843.91
2018-09-18T06:37:06.266Z,97852.14
2018-09-18T06:39:35.365Z,97857.88
2018-09-18T06:42:04.337Z,97855.00
2018-09-18T06:44:33.794Z,97858.20
2018-09-18T06:47:03.021Z,97858.21
2018-09-18T06:49:31.469Z,97850.94
2018-09-18T06:51:59.949Z,97846.28
2018-09-18T06:54:28.609Z,97844.57
2018-09-18T06:56:57.779Z,97855.12
2018-09-18T06:59:26.281Z,97846.56
2018-09-18T07:01:54.777Z,97853.70
2018-09-18T07:04:23.980Z,97848.88
2018-09-18T07:06:52.994Z,97851.71
2018-09-18T07:09:21.532Z,97854.50
2018-09-18T07:11:50.036Z,97856.36
2018-09-18T07:14:18.633Z,97854.72
2018-09-18T07:16:47.939Z,97849.23
2018-09-18T07:19:17.912Z,97840.56
2018-09-18T07:21:47.342Z,97841.95
2018-09-18T07:24:15.806Z,97838.95
2018-09-18T07:26:44.644Z,97839.75
2018-09-18T07:29:13.197Z,97836.40
2018-09-18T07:31:42.547Z,97835.96
2018-09-18T07:34:11.132Z,97836.73
2018-09-18T07:36:39.910Z,97841.70
2018-09-18T07:39:10.165Z,97838.42
2018-09-18T07:41:38.753Z,97844.19
2018-09-18T07:44:07.390Z,97842.25
2018-09-18T07:46:37.311Z,97858.55
2018-09-18T07:49:06.413Z,97848.88
2018-09-18T07:51:35.697Z,97843.58
2018-09-18T07:54:04.196Z,97839.48
2018-09-18T07:56:32.969Z,97827.03
2018-09-18T07:59:02.438Z,97835.31
2018-09-18T08:01:31.575Z,97832.41
2018-09-18T08:04:00.678Z,97839.17
2018-09-18T08:06:29.994Z,97829.05
2018-09-18T08:08:58.958Z,97831.86
2018-09-18T08:11:27.451Z,97834.20
2018-09-18T08:13:55.955Z,97829.13
2018-09-18T08:16:25.141Z,97831.11
2018-09-18T08:18:53.718Z,97828.28
2018-09-18T08:21:22.216Z,97825.39
2018-09-18T08:23:50.714Z,97831.81
2018-09-18T08:26:20.242Z,97830.48
2018-09-18T08:28:49.469Z,97832.09
2018-09-18T08:31:18.589Z,97828.64
2018-09-18T08:33:48.342Z,97828.08
2018-09-18T08:36:17.021Z,97821.27
2018-09-18T08:38:46.285Z,97826.05
2018-09-18T08:41:14.805Z,97831.75
2018-09-18T08:43:43.820Z,97825.37
2018-09-18T08:46:13.048Z,97828.16
2018-09-18T08:48:47.359Z,97825.38
2018-09-18T08:51:15.797Z,97827.79
2018-09-18T08:53:44.392Z,97828.52
2018-09-18T08:56:13.975Z,97834.62
2018-09-18T08:58:43.298Z,97834.70
2018-09-18T09:01:12.021Z,97834.88
2018-09-18T09:03:40.475Z,97840.69
2018-09-18T09:06:09.933Z,97833.56
2018-09-18T09:08:39.303Z,97832.66
2018-09-18T09:11:07.785Z,97841.38
2018-09-18T09:13:36.333Z,97841.41
2018-09-18T09:16:05.012Z,97841.20
2018-09-18T09:18:34.340Z,97837.17
2018-09-18T09:21:03.581Z,97830.41
2018-09-18T09:23:32.772Z,97838.23
2018-09-18T09:26:01.355Z,97819.73
2018-09-18T09:28:30.184Z,97817.88
2018-09-18T09:30:58.694Z,97819.00
2018-09-18T09:33:27.260Z,97810.25
2018-09-18T09:35:55.840Z,97814.94
2018-09-18T09:38:24.934Z,97819.23
2018-09-18T09:40:53.662Z,97818.03
2018-09-18T09:43:22.773Z,97810.48
2018-09-18T09:45:51.215Z,97814.06
2018-09-18T09:48:19.680Z,97807.22
2018-09-18T09:50:48.142Z,97807.71
2018-09-18T09:53:16.872Z,97808.34
2018-09-18T09:55:46.163Z,97805.47
2018-09-18T09:58:15.238Z,97810.36
2018-09-18T10:00:49.183Z,97811.05
2018-09-18T10:03:18.949Z,97809.12
2018-09-18T10:05:47.691Z,97797.20
2018-09-18T10:08:16.164Z,97801.07
2018-09-18T10:10:44.744Z,97799.29
2018-09-18T10:13:13.459Z,97798.08
2018-09-18T10:15:42.975Z,97803.82
2018-09-18T10:18:11.484Z,97794.19
2018-09-18T10:20:39.924Z,97794.66
2018-09-18T10:23:08.939Z,97794.20
2018-09-18T10:25:37.421Z,97795.30
2018-09-18T10:28:06.525Z,97792.31
2018-09-18T10:30:35.092Z,97789.42
2018-09-18T10:33:03.971Z,97788.25
2018-09-18T10:35:33.318Z,97788.25
2018-09-18T10:39:33.109Z,97783.95
2018-09-18T10:42:01.776Z,97786.57
2018-09-18T10:44:30.324Z,97785.61
2018-09-18T10:46:58.837Z,97783.41
2018-09-18T10:49:28.472Z,97782.11
2018-09-18T10:51:57.491Z,97777.36
2018-09-18T10:54:26.531Z,97770.00
2018-09-18T10:56:55.624Z,97772.97
2018-09-18T10:59:26.387Z,97767.06
2018-09-18T11:01:55.189Z,97768.97
2018-09-18T11:04:24.166Z,97770.53
2018-09-18T11:06:52.891Z,97767.84
2018-09-18T11:09:22.176Z,97775.38
2018-09-18T11:11:50.651Z,97766.86
2018-09-18T11:14:19.783Z,97764.52
2018-09-18T11:16:48.178Z,97764.24
2018-09-18T11:19:17.453Z,97767.94
2018-09-18T11:21:46.424Z,97758.39
2018-09-18T11:24:17.061Z,97763.06
2018-09-18T11:26:45.585Z,97759.58
2018-09-18T11:29:14.192Z,97761.77
2018-09-18T11:31:43.367Z,97758.55
2018-09-18T11:34:11.798Z,97755.49
2018-09-18T11:36:41.011Z,97752.80
2018-09-18T11:39:10.230Z,97751.49
2018-09-18T11:41:39.435Z,97752.24
2018-09-18T11:44:08.565Z,97745.32
2018-09-18T11:46:37.177Z,97750.72
2018-09-18T11:49:06.130Z,97748.92
2018-09-18T11:51:35.381Z,97747.61
2018-09-18T11:54:04.632Z,97738.50
2018-09-18T11:56:34.609Z,97742.97
2018-09-18T11:59:03.924Z,97750.01
2018-09-18T12:01:33.365Z,97743.44
2018-09-18T12:04:02.564Z,97740.41
2018-09-18T12:06:32.049Z,97747.38
2018-09-18T12:09:00.555Z,97743.12
2018-09-18T12:11:29.763Z,97747.60
2018-09-18T12:13:59.001Z,97737.72
2018-09-18T12:16:27.831Z,97738.52
2018-09-18T12:18:57.089Z,97721.41
2018-09-18T12:21:25.553Z,97725.06
2018-09-18T12:23:54.395Z,97720.44
2018-09-18T12:26:22.911Z,97718.76
2018-09-18T12:28:52.614Z,97710.77
2018-09-18T12:31:21.205Z,97716.53
2018-09-18T12:33:49.818Z,97711.88
2018-09-18T12:36:19.991Z,97712.83
2018-09-18T12:38:49.898Z,97708.17
2018-09-18T12:41:19.329Z,97710.40
2018-09-18T12:43:47.854Z,97696.08
2018-09-18T12:46:17.145Z,97696.30
2018-09-18T12:48:46.324Z,97693.51
2018-09-18T12:51:14.964Z,97697.75
2018-09-18T12:53:44.477Z,97697.87
2018-09-18T12:56:19.761Z,97697.84
2018-09-18T12:58:49.030Z,97692.30
2018-09-18T13:01:18.190Z,97683.30
2018-09-18T13:03:47.155Z,97683.56
2018-09-18T13:06:17.037Z,97679.23
2018-09-18T13:08:46.015Z,97680.99
2018-09-18T13:11:15.269Z,97672.30
2018-09-18T13:13:44.764Z,97666.74
2018-09-18T13:16:13.420Z,97661.58
2018-09-18T13:18:42.060Z,97661.23
2018-09-18T13:21:10.629Z,97633.88
2018-09-18T13:23:39.511Z,97666.94
2018-09-18T13:26:08.624Z,97670.34
2018-09-18T13:28:37.180Z,97663.77
2018-09-18T13:31:06.325Z,97666.48
2018-09-18T13:33:35.579Z,97657.62
2018-09-18T13:36:05.091Z,97655.33
2018-09-18T13:38:33.628Z,97652.05
2018-09-18T13:41:02.555Z,97649.95
2018-09-18T13:43:31.527Z,97649.86
2018-09-18T13:46:00.771Z,97647.19
2018-09-18T13:48:29.840Z,97649.70
2018-09-18T13:50:59.320Z,97643.67
2018-09-18T13:53:29.141Z,97647.17
2018-09-18T13:55:58.660Z,97645.68
2018-09-18T13:58:27.101Z,97635.66
2018-09-18T14:00:55.940Z,97639.10
2018-09-18T14:03:25.271Z,97641.58
2018-09-18T14:05:55.729Z,97642.41
2018-09-18T14:08:24.501Z,97637.38
2018-09-18T14:10:53.567Z,97639.23
2018-09-18T14:13:22.501Z,97642.87
2018-09-18T14:15:51.377Z,97636.71
2018-09-18T14:18:19.967Z,97634.70
2018-09-18T14:20:48.516Z,97634.53
2018-09-18T14:23:17.597Z,97628.96
2018-09-18T14:25:47.488Z,97632.63
2018-09-18T14:28:16.122Z,97623.66
2018-09-18T14:30:49.537Z,97626.02
2018-09-18T14:33:18.616Z,97620.33
2018-09-18T14:35:48.669Z,97616.34
2018-09-18T14:38:18.233Z,97619.04
2018-09-18T14:40:47.280Z,97610.05
2018-09-18T14:43:15.853Z,97610.97
2018-09-18T14:45:44.864Z,97607.22
2018-09-18T14:48:14.043Z,97613.59
2018-09-18T14:50:42.785Z,97609.45
2018-09-18T14:53:11.385Z,97612.85
2018-09-18T14:55:40.652Z,97608.72
2018-09-18T14:58:09.943Z,97609.38
2018-09-18T15:00:39.151Z,97616.80
2018-09-18T15:03:08.305Z,97613.66
2018-09-18T15:05:36.905Z,97607.27
2018-09-18T15:08:05.371Z,97616.51
2018-09-18T15:10:33.886Z,97611.12
2018-09-18T15:13:02.423Z,97616.89
2018-09-18T15:15:31.559Z,97615.02
2018-09-18T15:18:00.648Z,97563.70
2018-09-18T15:20:30.200Z,97605.27
2018-09-18T15:22:59.586Z,97608.36
2018-09-18T15:25:28.809Z,97610.55
2018-09-18T15:27:58.115Z,97621.79
2018-09-18T15:30:26.612Z,97617.19
2018-09-18T15:32:55.833Z,97625.92
2018-09-18T15:35:24.338Z,97635.22
2018-09-18T15:37:52.824Z,97635.56
2018-09-18T15:40:21.876Z,97629.11
2018-09-18T15:42:52.124Z,97630.72
2018-09-18T15:45:20.708Z,97633.02
2018-09-18T15:47:49.429Z,97633.98
2018-09-18T15:50:18.145Z,97641.17
2018-09-18T15:52:47.007Z,97643.77
2018-09-18T15:55:17.071Z,97645.03
2018-09-18T15:57:46.105Z,97645.21
2018-09-18T16:00:15.260Z,97651.16
2018-09-18T16:02:44.502Z,97663.84
2018-09-18T16:05:14.079Z,97669.70
2018-09-18T16:07:44.418Z,97668.39
2018-09-18T16:10:13.097Z,97672.30
2018-09-18T16:12:42.852Z,97678.58
2018-09-18T16:15:11.897Z,97687.52
2018-09-18T16:17:41.257Z,97686.47
2018-09-18T16:20:10.282Z,97683.92
2018-09-18T16:22:39.781Z,97677.27
2018-09-18T16:25:09.055Z,97682.59
2018-09-18T16:27:37.989Z,97679.70
2018-09-18T16:30:07.277Z,97674.75
2018-09-18T16:32:35.820Z,97677.30
2018-09-18T16:35:04.681Z,97682.19
2018-09-18T16:37:34.153Z,97679.38
2018-09-18T16:40:03.396Z,97685.03
2018-09-18T16:42:32.811Z,97695.58
2018-09-18T16:45:01.266Z,97700.11
2018-09-18T16:47:30.094Z,97694.66
2018-09-18T16:49:58.818Z,97693.20
2018-09-18T16:52:27.725Z,97701.32
2018-09-18T16:54:56.921Z,97700.92
2018-09-18T16:57:26.356Z,97705.33
2018-09-18T16:59:55.203Z,97698.72
2018-09-18T17:02:25.595Z,97704.44
2018-09-18T17:04:54.489Z,97699.67
2018-09-18T17:07:23.623Z,97695.56
2018-09-18T17:09:56.099Z,97692.19
2018-09-18T17:12:30.433Z,97691.56
2018-09-18T17:15:00.107Z,97691.23
2018-09-18T17:17:30.385Z,97688.53
2018-09-18T17:19:59.334Z,97680.03
2018-09-18T17:22:27.969Z,97682.34
2018-09-18T17:24:56.664Z,97673.03
2018-09-18T17:27:25.848Z,97689.21
2018-09-18T17:29:55.692Z,97695.16
2018-09-18T17:32:24.666Z,97692.39
2018-09-18T17:34:53.780Z,97700.67
2018-09-18T17:37:22.707Z,97709.80
2018-09-18T17:39:52.403Z,97716.70
2018-09-18T17:42:21.338Z,97713.96
2018-09-18T17:44:51.534Z,97721.86
2018-09-18T17:47:20.785Z,97730.81
2018-09-18T17:49:50.120Z,97744.21
2018-09-18T17:52:19.219Z,97705.72
2018-09-18T17:54:48.598Z,97753.83
2018-09-18T17:57:24.553Z,97769.70
2018-09-18T17:59:54.216Z,97774.81
2018-09-18T18:02:23.034Z,97782.83
2018-09-18T18:04:51.592Z,97792.02
2018-09-18T18:07:20.570Z,97794.16
2018-09-18T18:09:49.810Z,97789.19
2018-09-18T18:12:19.175Z,97790.67
2018-09-18T18:14:48.525Z,97789.75
2018-09-18T18:17:17.192Z,97786.25
2018-09-18T18:19:46.333Z,97781.36
2018-09-18T18:22:15.072Z,97781.33
2018-09-18T18:24:44.245Z,97809.77
2018-09-18T18:27:12.952Z,97819.36
2018-09-18T18:29:41.745Z,97813.27
2018-09-18T18:32:11.081Z,97813.30
2018-09-18T18:34:40.286Z,97820.26
2018-09-18T18:37:09.692Z,97827.45
2018-09-18T18:39:38.934Z,97834.66
2018-09-18T18:42:13.210Z,97836.92
2018-09-18T18:44:44.195Z,97832.50
2018-09-18T18:47:16.030Z,97842.91
2018-09-18T18:49:47.897Z,97836.47
2018-09-18T18:52:18.646Z,97833.70
2018-09-18T18:54:48.941Z,97838.94
2018-09-18T18:57:20.587Z,97838.63
2018-09-18T18:59:51.401Z,97836.87
2018-09-18T19:02:20.608Z,97840.69
2018-09-18T19:04:49.929Z,97837.55
2018-09-18T19:07:18.532Z,97841.09
2018-09-18T19:09:49.941Z,97840.31
2018-09-18T19:12:20.744Z,97840.00
2018-09-18T19:14:51.116Z,97841.17
2018-09-18T19:17:22.281Z,97843.37
2018-09-18T19:19:51.258Z,97850.25
2018-09-18T19:22:23.974Z,97849.28
2018-09-18T19:24:55.371Z,97836.05
2018-09-18T19:27:23.864Z,97833.59
2018-09-18T19:29:52.988Z,97850.54
2018-09-18T19:32:21.624Z,97852.66
2018-09-18T19:34:50.533Z,97860.24
2018-09-18T19:37:20.023Z,97858.13
2018-09-18T19:39:49.226Z,97849.98
2018-09-18T19:42:18.495Z,97846.23
2018-09-18T19:44:48.452Z,97844.28
2018-09-18T19:47:16.968Z,97833.49
2018-09-18T19:49:46.316Z,97829.58
2018-09-18T19:52:15.279Z,97832.74
2018-09-18T19:54:46.569Z,97824.72
2018-09-18T19:57:19.985Z,97831.63
2018-09-18T19:59:51.214Z,97830.59
2018-09-18T20:02:21.733Z,97830.16
2018-09-18T20:04:50.956Z,97837.86
2018-09-18T20:07:22.434Z,97826.00
2018-09-18T20:09:53.304Z,97839.11
2018-09-18T20:12:25.209Z,97855.60
2018-09-18T20:14:54.148Z,97873.31
2018-09-18T20:17:29.174Z,97882.04
2018-09-18T20:20:01.657Z,97879.20
2018-09-18T20:22:32.260Z,97891.84
2018-09-18T20:25:02.495Z,97886.77
2018-09-18T20:27:32.492Z,97896.77
2018-09-18T20:30:01.251Z,97893.05
2018-09-18T20:32:33.469Z,97897.73
2018-09-18T20:35:02.186Z,97899.66
2018-09-18T20:37:30.725Z,97902.17
2018-09-18T20:40:01.475Z,97903.00
2018-09-18T20:42:32.137Z,97903.45
2018-09-18T20:45:03.684Z,97909.87
2018-09-18T20:47:36.013Z,97907.34
2018-09-18T20:50:09.371Z,97917.38
